sensor_id;sensor_type;location;lat;lon;timestamp;P1;durP1;ratioP1;P2;durP2;ratioP2
5539;SDS011;2792;52.452;9.752;2023-05-10T00:00:22;5.00;;;3.10;;
5539;SDS011;2792;52.452;9.752;2023-05-10T00:02:50;6.03;;;3.80;;
5539;SDS011;2792;52.452;9.752;2023-05-10T00:05:16;5.80;;;2.90;;
5539;SDS011;2792;52.452;9.752;2023-05-10T00:07:43;4.57;;;3.50;;
5539;SDS011;2792;52.452;9.752;2023-05-10T00:10:10;3.83;;;3.43;;
5539;SDS011;2792;52.452;9.752;2023-05-10T00:12:37;6.23;;;3.90;;
5539;SDS011;2792;52.452;9.752;2023-05-10T00:15:04;3.40;;;2.90;;
5539;SDS011;2792;52.452;9.752;2023-05-10T00:17:31;3.77;;;3.13;;
5539;SDS011;2792;52.452;9.752;2023-05-10T00:19:58;6.57;;;3.33;;
5539;SDS011;2792;52.452;9.752;2023-05-10T00:22:25;6.73;;;3.47;;
5539;SDS011;2792;52.452;9.752;2023-05-10T00:24:52;7.30;;;3.37;;
5539;SDS011;2792;52.452;9.752;2023-05-10T00:27:18;6.43;;;3.07;;
5539;SDS011;2792;52.452;9.752;2023-05-10T00:29:44;6.20;;;3.47;;
5539;SDS011;2792;52.452;9.752;2023-05-10T00:32:11;5.80;;;3.53;;
5539;SDS011;2792;52.452;9.752;2023-05-10T00:34:39;5.00;;;3.60;;
5539;SDS011;2792;52.452;9.752;2023-05-10T00:37:07;6.20;;;3.37;;
5539;SDS011;2792;52.452;9.752;2023-05-10T00:39:33;7.00;;;4.10;;
5539;SDS011;2792;52.452;9.752;2023-05-10T00:42:00;4.07;;;3.33;;
5539;SDS011;2792;52.452;9.752;2023-05-10T00:44:26;4.00;;;3.23;;
5539;SDS011;2792;52.452;9.752;2023-05-10T00:46:53;3.80;;;3.37;;
5539;SDS011;2792;52.452;9.752;2023-05-10T00:49:20;6.00;;;3.57;;
5539;SDS011;2792;52.452;9.752;2023-05-10T00:51:46;4.50;;;2.93;;
5539;SDS011;2792;52.452;9.752;2023-05-10T00:54:14;4.03;;;3.30;;
5539;SDS011;2792;52.452;9.752;2023-05-10T00:56:41;4.20;;;3.60;;
5539;SDS011;2792;52.452;9.752;2023-05-10T00:59:08;4.73;;;3.30;;
5539;SDS011;2792;52.452;9.752;2023-05-10T01:01:35;6.40;;;3.83;;
5539;SDS011;2792;52.452;9.752;2023-05-10T01:04:02;6.37;;;4.10;;
5539;SDS011;2792;52.452;9.752;2023-05-10T01:06:29;4.70;;;3.47;;
5539;SDS011;2792;52.452;9.752;2023-05-10T01:08:55;6.43;;;3.90;;
5539;SDS011;2792;52.452;9.752;2023-05-10T01:11:23;6.50;;;3.67;;
5539;SDS011;2792;52.452;9.752;2023-05-10T01:13:51;4.33;;;3.50;;
5539;SDS011;2792;52.452;9.752;2023-05-10T01:16:20;4.73;;;3.40;;
5539;SDS011;2792;52.452;9.752;2023-05-10T01:18:46;7.90;;;4.10;;
5539;SDS011;2792;52.452;9.752;2023-05-10T01:21:17;3.70;;;3.30;;
5539;SDS011;2792;52.452;9.752;2023-05-10T01:24:00;4.63;;;4.20;;
5539;SDS011;2792;52.452;9.752;2023-05-10T01:29:42;3.70;;;3.40;;
5539;SDS011;2792;52.452;9.752;2023-05-10T01:32:31;4.67;;;3.87;;
5539;SDS011;2792;52.452;9.752;2023-05-10T01:35:02;5.83;;;3.70;;
5539;SDS011;2792;52.452;9.752;2023-05-10T01:37:36;6.93;;;3.60;;
5539;SDS011;2792;52.452;9.752;2023-05-10T01:40:08;4.70;;;4.27;;
5539;SDS011;2792;52.452;9.752;2023-05-10T01:42:40;3.80;;;3.40;;
5539;SDS011;2792;52.452;9.752;2023-05-10T01:45:13;7.60;;;4.10;;
5539;SDS011;2792;52.452;9.752;2023-05-10T01:47:44;4.07;;;3.70;;
5539;SDS011;2792;52.452;9.752;2023-05-10T01:50:15;4.30;;;3.90;;
5539;SDS011;2792;52.452;9.752;2023-05-10T01:52:44;5.80;;;4.40;;
5539;SDS011;2792;52.452;9.752;2023-05-10T01:55:14;5.53;;;4.00;;
5539;SDS011;2792;52.452;9.752;2023-05-10T01:57:42;6.00;;;4.13;;
5539;SDS011;2792;52.452;9.752;2023-05-10T02:00:10;5.30;;;3.87;;
5539;SDS011;2792;52.452;9.752;2023-05-10T02:02:39;4.13;;;3.73;;
5539;SDS011;2792;52.452;9.752;2023-05-10T02:05:08;4.97;;;4.27;;
5539;SDS011;2792;52.452;9.752;2023-05-10T02:07:35;6.67;;;4.43;;
5539;SDS011;2792;52.452;9.752;2023-05-10T02:10:02;4.77;;;3.80;;
5539;SDS011;2792;52.452;9.752;2023-05-10T02:12:31;4.27;;;3.50;;
5539;SDS011;2792;52.452;9.752;2023-05-10T02:14:58;6.27;;;3.37;;
5539;SDS011;2792;52.452;9.752;2023-05-10T02:17:25;5.47;;;4.50;;
5539;SDS011;2792;52.452;9.752;2023-05-10T02:19:53;4.93;;;4.17;;
5539;SDS011;2792;52.452;9.752;2023-05-10T02:22:22;4.27;;;3.87;;
5539;SDS011;2792;52.452;9.752;2023-05-10T02:24:49;4.30;;;3.90;;
5539;SDS011;2792;52.452;9.752;2023-05-10T02:27:16;4.33;;;3.73;;
5539;SDS011;2792;52.452;9.752;2023-05-10T02:29:43;4.70;;;4.20;;
5539;SDS011;2792;52.452;9.752;2023-05-10T02:32:10;4.80;;;4.00;;
5539;SDS011;2792;52.452;9.752;2023-05-10T02:34:38;6.07;;;4.67;;
5539;SDS011;2792;52.452;9.752;2023-05-10T02:37:04;5.47;;;4.30;;
5539;SDS011;2792;52.452;9.752;2023-05-10T02:39:33;5.33;;;3.97;;
5539;SDS011;2792;52.452;9.752;2023-05-10T02:42:00;4.67;;;4.20;;
5539;SDS011;2792;52.452;9.752;2023-05-10T02:44:27;8.20;;;4.60;;
5539;SDS011;2792;52.452;9.752;2023-05-10T02:46:56;5.93;;;5.33;;
5539;SDS011;2792;52.452;9.752;2023-05-10T02:49:23;5.97;;;4.40;;
5539;SDS011;2792;52.452;9.752;2023-05-10T02:51:50;6.90;;;3.70;;
5539;SDS011;2792;52.452;9.752;2023-05-10T02:54:18;6.60;;;4.40;;
5539;SDS011;2792;52.452;9.752;2023-05-10T02:56:49;5.33;;;4.60;;
5539;SDS011;2792;52.452;9.752;2023-05-10T02:59:17;7.87;;;4.47;;
5539;SDS011;2792;52.452;9.752;2023-05-10T03:01:43;4.60;;;4.20;;
5539;SDS011;2792;52.452;9.752;2023-05-10T03:04:10;5.20;;;4.40;;
5539;SDS011;2792;52.452;9.752;2023-05-10T03:06:36;5.93;;;4.73;;
5539;SDS011;2792;52.452;9.752;2023-05-10T03:09:03;9.10;;;4.60;;
5539;SDS011;2792;52.452;9.752;2023-05-10T03:11:37;6.40;;;4.67;;
5539;SDS011;2792;52.452;9.752;2023-05-10T03:14:13;5.57;;;4.60;;
5539;SDS011;2792;52.452;9.752;2023-05-10T03:16:46;5.43;;;4.53;;
5539;SDS011;2792;52.452;9.752;2023-05-10T03:19:21;7.00;;;5.20;;
5539;SDS011;2792;52.452;9.752;2023-05-10T03:21:51;6.63;;;4.87;;
5539;SDS011;2792;52.452;9.752;2023-05-10T03:24:20;6.60;;;4.77;;
5539;SDS011;2792;52.452;9.752;2023-05-10T03:26:48;4.40;;;4.10;;
5539;SDS011;2792;52.452;9.752;2023-05-10T03:29:16;13.97;;;5.30;;
5539;SDS011;2792;52.452;9.752;2023-05-10T03:31:43;5.63;;;5.03;;
5539;SDS011;2792;52.452;9.752;2023-05-10T03:34:10;4.87;;;4.37;;
5539;SDS011;2792;52.452;9.752;2023-05-10T03:36:36;5.90;;;4.57;;
5539;SDS011;2792;52.452;9.752;2023-05-10T03:39:03;7.03;;;5.03;;
5539;SDS011;2792;52.452;9.752;2023-05-10T03:41:29;7.63;;;5.10;;
5539;SDS011;2792;52.452;9.752;2023-05-10T03:43:56;6.70;;;4.83;;
5539;SDS011;2792;52.452;9.752;2023-05-10T03:46:24;6.10;;;4.73;;
5539;SDS011;2792;52.452;9.752;2023-05-10T03:48:50;5.23;;;4.73;;
5539;SDS011;2792;52.452;9.752;2023-05-10T03:51:17;5.20;;;4.70;;
5539;SDS011;2792;52.452;9.752;2023-05-10T03:53:43;6.33;;;5.43;;
5539;SDS011;2792;52.452;9.752;2023-05-10T03:56:10;6.43;;;5.07;;
5539;SDS011;2792;52.452;9.752;2023-05-10T03:58:36;9.57;;;5.17;;
5539;SDS011;2792;52.452;9.752;2023-05-10T04:01:03;7.13;;;5.53;;
5539;SDS011;2792;52.452;9.752;2023-05-10T04:03:30;6.60;;;5.27;;
5539;SDS011;2792;52.452;9.752;2023-05-10T04:06:00;8.63;;;6.10;;
5539;SDS011;2792;52.452;9.752;2023-05-10T04:08:27;9.13;;;5.80;;
5539;SDS011;2792;52.452;9.752;2023-05-10T04:10:53;6.13;;;5.53;;
5539;SDS011;2792;52.452;9.752;2023-05-10T04:13:20;11.07;;;5.90;;
5539;SDS011;2792;52.452;9.752;2023-05-10T04:15:47;6.73;;;6.03;;
5539;SDS011;2792;52.452;9.752;2023-05-10T04:18:14;7.60;;;6.60;;
5539;SDS011;2792;52.452;9.752;2023-05-10T04:20:41;7.00;;;6.30;;
5539;SDS011;2792;52.452;9.752;2023-05-10T04:23:08;6.90;;;5.90;;
5539;SDS011;2792;52.452;9.752;2023-05-10T04:25:34;8.67;;;6.13;;
5539;SDS011;2792;52.452;9.752;2023-05-10T04:28:01;7.47;;;6.30;;
5539;SDS011;2792;52.452;9.752;2023-05-10T04:30:27;11.37;;;6.23;;
5539;SDS011;2792;52.452;9.752;2023-05-10T04:32:54;7.77;;;5.53;;
5539;SDS011;2792;52.452;9.752;2023-05-10T04:35:20;8.13;;;6.80;;
5539;SDS011;2792;52.452;9.752;2023-05-10T04:37:48;7.53;;;5.40;;
5539;SDS011;2792;52.452;9.752;2023-05-10T04:40:15;6.30;;;5.43;;
5539;SDS011;2792;52.452;9.752;2023-05-10T04:42:42;11.70;;;7.17;;
5539;SDS011;2792;52.452;9.752;2023-05-10T04:45:10;7.00;;;6.30;;
5539;SDS011;2792;52.452;9.752;2023-05-10T04:47:36;9.10;;;6.30;;
5539;SDS011;2792;52.452;9.752;2023-05-10T04:50:03;7.97;;;5.73;;
5539;SDS011;2792;52.452;9.752;2023-05-10T04:52:30;6.63;;;5.90;;
5539;SDS011;2792;52.452;9.752;2023-05-10T04:54:58;7.33;;;6.43;;
5539;SDS011;2792;52.452;9.752;2023-05-10T04:57:25;9.73;;;7.67;;
5539;SDS011;2792;52.452;9.752;2023-05-10T04:59:51;7.20;;;6.47;;
5539;SDS011;2792;52.452;9.752;2023-05-10T05:02:18;10.07;;;7.03;;
5539;SDS011;2792;52.452;9.752;2023-05-10T05:04:44;8.27;;;7.47;;
5539;SDS011;2792;52.452;9.752;2023-05-10T05:07:11;15.33;;;7.17;;
5539;SDS011;2792;52.452;9.752;2023-05-10T05:09:37;15.43;;;8.07;;
5539;SDS011;2792;52.452;9.752;2023-05-10T05:12:05;8.77;;;7.43;;
5539;SDS011;2792;52.452;9.752;2023-05-10T05:14:32;8.87;;;7.60;;
5539;SDS011;2792;52.452;9.752;2023-05-10T05:16:58;9.17;;;7.63;;
5539;SDS011;2792;52.452;9.752;2023-05-10T05:19:25;11.00;;;8.00;;
5539;SDS011;2792;52.452;9.752;2023-05-10T05:21:52;9.67;;;7.90;;
5539;SDS011;2792;52.452;9.752;2023-05-10T05:24:18;10.73;;;8.70;;
5539;SDS011;2792;52.452;9.752;2023-05-10T05:26:45;10.30;;;8.27;;
5539;SDS011;2792;52.452;9.752;2023-05-10T05:29:13;9.63;;;7.23;;
5539;SDS011;2792;52.452;9.752;2023-05-10T05:31:40;10.60;;;9.00;;
5539;SDS011;2792;52.452;9.752;2023-05-10T05:34:06;9.97;;;7.93;;
5539;SDS011;2792;52.452;9.752;2023-05-10T05:36:35;11.57;;;9.37;;
5539;SDS011;2792;52.452;9.752;2023-05-10T05:39:03;16.50;;;9.53;;
5539;SDS011;2792;52.452;9.752;2023-05-10T05:41:29;10.73;;;9.30;;
5539;SDS011;2792;52.452;9.752;2023-05-10T05:43:56;12.07;;;9.67;;
5539;SDS011;2792;52.452;9.752;2023-05-10T05:46:24;16.10;;;9.93;;
5539;SDS011;2792;52.452;9.752;2023-05-10T05:48:50;11.30;;;9.87;;
5539;SDS011;2792;52.452;9.752;2023-05-10T05:51:17;12.40;;;10.53;;
5539;SDS011;2792;52.452;9.752;2023-05-10T05:53:43;11.20;;;9.10;;
5539;SDS011;2792;52.452;9.752;2023-05-10T05:56:10;11.40;;;9.40;;
5539;SDS011;2792;52.452;9.752;2023-05-10T05:58:36;12.60;;;9.83;;
5539;SDS011;2792;52.452;9.752;2023-05-10T06:01:03;14.00;;;9.50;;
5539;SDS011;2792;52.452;9.752;2023-05-10T06:03:31;12.60;;;10.07;;
5539;SDS011;2792;52.452;9.752;2023-05-10T06:05:57;28.93;;;10.03;;
5539;SDS011;2792;52.452;9.752;2023-05-10T06:08:24;12.13;;;9.80;;
5539;SDS011;2792;52.452;9.752;2023-05-10T06:10:50;10.23;;;9.10;;
5539;SDS011;2792;52.452;9.752;2023-05-10T06:13:17;12.00;;;9.50;;
5539;SDS011;2792;52.452;9.752;2023-05-10T06:15:43;11.40;;;9.50;;
5539;SDS011;2792;52.452;9.752;2023-05-10T06:18:10;10.10;;;9.00;;
5539;SDS011;2792;52.452;9.752;2023-05-10T06:20:38;12.83;;;9.97;;
5539;SDS011;2792;52.452;9.752;2023-05-10T06:23:04;11.63;;;8.40;;
5539;SDS011;2792;52.452;9.752;2023-05-10T06:25:31;10.53;;;8.83;;
5539;SDS011;2792;52.452;9.752;2023-05-10T06:27:57;12.83;;;9.50;;
5539;SDS011;2792;52.452;9.752;2023-05-10T06:30:25;14.37;;;9.47;;
5539;SDS011;2792;52.452;9.752;2023-05-10T06:32:53;12.67;;;9.60;;
5539;SDS011;2792;52.452;9.752;2023-05-10T06:35:20;12.13;;;10.07;;
5539;SDS011;2792;52.452;9.752;2023-05-10T06:37:48;11.30;;;9.40;;
5539;SDS011;2792;52.452;9.752;2023-05-10T06:40:14;11.90;;;9.77;;
5539;SDS011;2792;52.452;9.752;2023-05-10T06:42:41;11.60;;;9.20;;
5539;SDS011;2792;52.452;9.752;2023-05-10T06:45:10;12.33;;;10.40;;
5539;SDS011;2792;52.452;9.752;2023-05-10T06:47:37;12.97;;;10.07;;
5539;SDS011;2792;52.452;9.752;2023-05-10T06:50:03;11.97;;;10.30;;
5539;SDS011;2792;52.452;9.752;2023-05-10T06:52:30;10.60;;;9.13;;
5539;SDS011;2792;52.452;9.752;2023-05-10T06:54:58;20.00;;;10.23;;
5539;SDS011;2792;52.452;9.752;2023-05-10T06:57:25;13.20;;;9.50;;
5539;SDS011;2792;52.452;9.752;2023-05-10T06:59:51;12.93;;;9.53;;
5539;SDS011;2792;52.452;9.752;2023-05-10T07:02:18;12.97;;;10.00;;
5539;SDS011;2792;52.452;9.752;2023-05-10T07:04:44;13.27;;;10.33;;
5539;SDS011;2792;52.452;9.752;2023-05-10T07:07:13;12.63;;;10.33;;
5539;SDS011;2792;52.452;9.752;2023-05-10T07:09:40;11.87;;;10.17;;
5539;SDS011;2792;52.452;9.752;2023-05-10T07:12:08;13.30;;;10.77;;
5539;SDS011;2792;52.452;9.752;2023-05-10T07:14:34;17.57;;;10.37;;
5539;SDS011;2792;52.452;9.752;2023-05-10T07:17:01;15.53;;;10.87;;
5539;SDS011;2792;52.452;9.752;2023-05-10T07:19:27;12.30;;;10.23;;
5539;SDS011;2792;52.452;9.752;2023-05-10T07:21:54;13.00;;;10.50;;
5539;SDS011;2792;52.452;9.752;2023-05-10T07:24:21;11.60;;;9.90;;
5539;SDS011;2792;52.452;9.752;2023-05-10T07:26:48;11.83;;;10.10;;
5539;SDS011;2792;52.452;9.752;2023-05-10T07:29:16;14.83;;;10.00;;
5539;SDS011;2792;52.452;9.752;2023-05-10T07:31:42;12.40;;;9.67;;
5539;SDS011;2792;52.452;9.752;2023-05-10T07:34:09;10.80;;;9.50;;
5539;SDS011;2792;52.452;9.752;2023-05-10T07:36:35;14.30;;;10.87;;
5539;SDS011;2792;52.452;9.752;2023-05-10T07:39:02;15.53;;;10.63;;
5539;SDS011;2792;52.452;9.752;2023-05-10T07:41:28;14.63;;;10.07;;
5539;SDS011;2792;52.452;9.752;2023-05-10T07:43:55;16.00;;;11.53;;
5539;SDS011;2792;52.452;9.752;2023-05-10T07:46:23;13.90;;;11.00;;
5539;SDS011;2792;52.452;9.752;2023-05-10T07:48:49;18.07;;;11.90;;
5539;SDS011;2792;52.452;9.752;2023-05-10T07:51:16;14.93;;;11.23;;
5539;SDS011;2792;52.452;9.752;2023-05-10T07:53:42;21.33;;;11.77;;
5539;SDS011;2792;52.452;9.752;2023-05-10T07:56:22;16.30;;;12.30;;
5539;SDS011;2792;52.452;9.752;2023-05-10T07:58:50;15.67;;;13.00;;
5539;SDS011;2792;52.452;9.752;2023-05-10T08:01:17;13.03;;;10.93;;
5539;SDS011;2792;52.452;9.752;2023-05-10T08:03:45;12.10;;;9.23;;
5539;SDS011;2792;52.452;9.752;2023-05-10T08:06:11;12.20;;;9.53;;
5539;SDS011;2792;52.452;9.752;2023-05-10T08:08:38;12.23;;;9.30;;
5539;SDS011;2792;52.452;9.752;2023-05-10T08:11:04;14.90;;;10.13;;
5539;SDS011;2792;52.452;9.752;2023-05-10T08:13:31;11.47;;;9.70;;
5539;SDS011;2792;52.452;9.752;2023-05-10T08:15:57;12.63;;;9.07;;
5539;SDS011;2792;52.452;9.752;2023-05-10T08:18:24;11.80;;;8.93;;
5539;SDS011;2792;52.452;9.752;2023-05-10T08:20:52;9.50;;;8.50;;
5539;SDS011;2792;52.452;9.752;2023-05-10T08:23:18;10.57;;;8.37;;
5539;SDS011;2792;52.452;9.752;2023-05-10T08:25:45;12.07;;;8.50;;
5539;SDS011;2792;52.452;9.752;2023-05-10T08:28:12;10.37;;;7.70;;
5539;SDS011;2792;52.452;9.752;2023-05-10T08:30:38;9.00;;;7.27;;
5539;SDS011;2792;52.452;9.752;2023-05-10T08:33:05;8.20;;;7.07;;
5539;SDS011;2792;52.452;9.752;2023-05-10T08:35:31;9.03;;;6.50;;
5539;SDS011;2792;52.452;9.752;2023-05-10T08:38:01;7.47;;;5.90;;
5539;SDS011;2792;52.452;9.752;2023-05-10T08:40:27;7.93;;;6.37;;
5539;SDS011;2792;52.452;9.752;2023-05-10T08:42:55;11.37;;;6.03;;
5539;SDS011;2792;52.452;9.752;2023-05-10T08:45:26;7.30;;;5.63;;
5539;SDS011;2792;52.452;9.752;2023-05-10T08:47:53;5.43;;;4.93;;
5539;SDS011;2792;52.452;9.752;2023-05-10T08:50:20;4.70;;;4.30;;
5539;SDS011;2792;52.452;9.752;2023-05-10T08:52:47;5.80;;;3.90;;
5539;SDS011;2792;52.452;9.752;2023-05-10T08:55:15;4.93;;;3.70;;
5539;SDS011;2792;52.452;9.752;2023-05-10T08:57:42;3.70;;;3.23;;
5539;SDS011;2792;52.452;9.752;2023-05-10T09:00:09;3.00;;;2.70;;
5539;SDS011;2792;52.452;9.752;2023-05-10T09:02:36;2.70;;;2.50;;
5539;SDS011;2792;52.452;9.752;2023-05-10T09:05:03;2.90;;;2.70;;
5539;SDS011;2792;52.452;9.752;2023-05-10T09:07:30;2.80;;;2.60;;
5539;SDS011;2792;52.452;9.752;2023-05-10T09:09:57;2.90;;;2.60;;
5539;SDS011;2792;52.452;9.752;2023-05-10T09:12:25;3.10;;;2.17;;
5539;SDS011;2792;52.452;9.752;2023-05-10T09:14:52;3.27;;;2.50;;
5539;SDS011;2792;52.452;9.752;2023-05-10T09:17:20;3.53;;;3.23;;
5539;SDS011;2792;52.452;9.752;2023-05-10T09:19:48;5.77;;;3.27;;
5539;SDS011;2792;52.452;9.752;2023-05-10T09:22:14;3.20;;;2.90;;
5539;SDS011;2792;52.452;9.752;2023-05-10T09:24:42;3.90;;;3.20;;
5539;SDS011;2792;52.452;9.752;2023-05-10T09:27:10;4.07;;;2.80;;
5539;SDS011;2792;52.452;9.752;2023-05-10T09:29:41;3.70;;;3.17;;
5539;SDS011;2792;52.452;9.752;2023-05-10T09:32:08;3.70;;;3.17;;
5539;SDS011;2792;52.452;9.752;2023-05-10T09:34:34;3.83;;;3.43;;
5539;SDS011;2792;52.452;9.752;2023-05-10T09:37:04;4.50;;;3.57;;
5539;SDS011;2792;52.452;9.752;2023-05-10T09:39:31;4.07;;;3.67;;
5539;SDS011;2792;52.452;9.752;2023-05-10T09:41:58;5.53;;;3.53;;
5539;SDS011;2792;52.452;9.752;2023-05-10T09:44:26;4.00;;;3.60;;
5539;SDS011;2792;52.452;9.752;2023-05-10T09:46:54;4.13;;;3.77;;
5539;SDS011;2792;52.452;9.752;2023-05-10T09:49:20;3.80;;;3.33;;
5539;SDS011;2792;52.452;9.752;2023-05-10T09:51:47;3.03;;;2.83;;
5539;SDS011;2792;52.452;9.752;2023-05-10T09:54:14;4.63;;;3.77;;
5539;SDS011;2792;52.452;9.752;2023-05-10T09:56:41;4.50;;;4.10;;
5539;SDS011;2792;52.452;9.752;2023-05-10T09:59:10;4.10;;;3.70;;
5539;SDS011;2792;52.452;9.752;2023-05-10T10:01:38;4.63;;;3.53;;
5539;SDS011;2792;52.452;9.752;2023-05-10T10:04:07;3.90;;;3.47;;
5539;SDS011;2792;52.452;9.752;2023-05-10T10:06:35;4.63;;;3.67;;
5539;SDS011;2792;52.452;9.752;2023-05-10T10:09:03;4.57;;;3.87;;
5539;SDS011;2792;52.452;9.752;2023-05-10T10:11:30;4.60;;;3.53;;
5539;SDS011;2792;52.452;9.752;2023-05-10T10:13:56;3.30;;;3.10;;
5539;SDS011;2792;52.452;9.752;2023-05-10T10:16:23;4.03;;;3.63;;
5539;SDS011;2792;52.452;9.752;2023-05-10T10:18:50;4.30;;;3.90;;
5539;SDS011;2792;52.452;9.752;2023-05-10T10:21:18;4.17;;;3.70;;
5539;SDS011;2792;52.452;9.752;2023-05-10T10:23:46;4.90;;;3.90;;
5539;SDS011;2792;52.452;9.752;2023-05-10T10:26:12;6.13;;;4.50;;
5539;SDS011;2792;52.452;9.752;2023-05-10T10:28:40;5.30;;;4.10;;
5539;SDS011;2792;52.452;9.752;2023-05-10T10:31:13;4.20;;;3.90;;
5539;SDS011;2792;52.452;9.752;2023-05-10T10:33:50;5.37;;;4.40;;
5539;SDS011;2792;52.452;9.752;2023-05-10T10:36:27;3.97;;;3.67;;
5539;SDS011;2792;52.452;9.752;2023-05-10T10:38:57;4.83;;;4.23;;
5539;SDS011;2792;52.452;9.752;2023-05-10T10:41:29;4.83;;;4.33;;
5539;SDS011;2792;52.452;9.752;2023-05-10T10:46:58;4.43;;;4.03;;
5539;SDS011;2792;52.452;9.752;2023-05-10T10:49:25;4.70;;;4.00;;
5539;SDS011;2792;52.452;9.752;2023-05-10T10:54:47;4.50;;;4.10;;
5539;SDS011;2792;52.452;9.752;2023-05-10T10:57:17;5.70;;;4.00;;
5539;SDS011;2792;52.452;9.752;2023-05-10T10:59:44;4.30;;;3.93;;
5539;SDS011;2792;52.452;9.752;2023-05-10T11:02:17;7.63;;;4.73;;
5539;SDS011;2792;52.452;9.752;2023-05-10T11:04:58;5.03;;;4.50;;
5539;SDS011;2792;52.452;9.752;2023-05-10T11:07:27;4.50;;;4.10;;
5539;SDS011;2792;52.452;9.752;2023-05-10T11:09:53;6.53;;;4.67;;
5539;SDS011;2792;52.452;9.752;2023-05-10T11:12:20;5.53;;;4.07;;
5539;SDS011;2792;52.452;9.752;2023-05-10T11:14:49;4.93;;;4.43;;
5539;SDS011;2792;52.452;9.752;2023-05-10T11:17:22;6.53;;;3.97;;
5539;SDS011;2792;52.452;9.752;2023-05-10T11:20:07;5.27;;;4.57;;
5539;SDS011;2792;52.452;9.752;2023-05-10T11:25:17;4.60;;;4.20;;
5539;SDS011;2792;52.452;9.752;2023-05-10T11:27:44;5.67;;;4.07;;
5539;SDS011;2792;52.452;9.752;2023-05-10T11:30:11;7.03;;;4.20;;
5539;SDS011;2792;52.452;9.752;2023-05-10T11:32:38;4.60;;;4.20;;
5539;SDS011;2792;52.452;9.752;2023-05-10T11:35:08;4.33;;;3.53;;
5539;SDS011;2792;52.452;9.752;2023-05-10T11:37:35;4.80;;;3.97;;
5539;SDS011;2792;52.452;9.752;2023-05-10T11:40:04;4.37;;;3.97;;
5539;SDS011;2792;52.452;9.752;2023-05-10T11:42:31;4.40;;;4.10;;
5539;SDS011;2792;52.452;9.752;2023-05-10T11:44:59;5.73;;;4.00;;
5539;SDS011;2792;52.452;9.752;2023-05-10T11:47:26;4.30;;;3.90;;
5539;SDS011;2792;52.452;9.752;2023-05-10T11:49:53;4.00;;;3.60;;
5539;SDS011;2792;52.452;9.752;2023-05-10T11:52:19;4.93;;;3.90;;
5539;SDS011;2792;52.452;9.752;2023-05-10T11:54:50;4.63;;;3.50;;
5539;SDS011;2792;52.452;9.752;2023-05-10T11:57:19;6.70;;;3.60;;
5539;SDS011;2792;52.452;9.752;2023-05-10T11:59:46;3.93;;;3.53;;
5539;SDS011;2792;52.452;9.752;2023-05-10T12:02:12;4.03;;;3.47;;
5539;SDS011;2792;52.452;9.752;2023-05-10T12:04:39;4.47;;;3.57;;
5539;SDS011;2792;52.452;9.752;2023-05-10T12:07:06;5.00;;;3.20;;
5539;SDS011;2792;52.452;9.752;2023-05-10T12:09:33;6.30;;;4.20;;
5539;SDS011;2792;52.452;9.752;2023-05-10T12:12:00;4.53;;;3.70;;
5539;SDS011;2792;52.452;9.752;2023-05-10T12:14:29;4.40;;;3.83;;
5539;SDS011;2792;52.452;9.752;2023-05-10T12:17:00;5.20;;;4.70;;
5539;SDS011;2792;52.452;9.752;2023-05-10T12:19:26;4.87;;;3.47;;
5539;SDS011;2792;52.452;9.752;2023-05-10T12:21:53;4.67;;;3.93;;
5539;SDS011;2792;52.452;9.752;2023-05-10T12:24:20;5.53;;;4.60;;
5539;SDS011;2792;52.452;9.752;2023-05-10T12:26:46;5.07;;;4.13;;
5539;SDS011;2792;52.452;9.752;2023-05-10T12:29:13;5.70;;;4.37;;
5539;SDS011;2792;52.452;9.752;2023-05-10T12:31:55;6.03;;;4.57;;
5539;SDS011;2792;52.452;9.752;2023-05-10T12:34:23;5.93;;;4.43;;
5539;SDS011;2792;52.452;9.752;2023-05-10T12:36:51;4.03;;;3.70;;
5539;SDS011;2792;52.452;9.752;2023-05-10T12:39:18;4.17;;;3.77;;
5539;SDS011;2792;52.452;9.752;2023-05-10T12:41:44;3.67;;;3.37;;
5539;SDS011;2792;52.452;9.752;2023-05-10T12:44:11;8.60;;;4.17;;
5539;SDS011;2792;52.452;9.752;2023-05-10T12:46:37;4.20;;;3.77;;
5539;SDS011;2792;52.452;9.752;2023-05-10T12:49:05;3.83;;;3.53;;
5539;SDS011;2792;52.452;9.752;2023-05-10T12:51:31;5.60;;;3.47;;
5539;SDS011;2792;52.452;9.752;2023-05-10T12:53:58;6.33;;;3.67;;
5539;SDS011;2792;52.452;9.752;2023-05-10T12:56:25;5.70;;;4.00;;
5539;SDS011;2792;52.452;9.752;2023-05-10T12:58:51;4.20;;;3.73;;
5539;SDS011;2792;52.452;9.752;2023-05-10T13:01:18;5.97;;;4.30;;
5539;SDS011;2792;52.452;9.752;2023-05-10T13:03:44;4.57;;;4.17;;
5539;SDS011;2792;52.452;9.752;2023-05-10T13:06:12;5.40;;;4.20;;
5539;SDS011;2792;52.452;9.752;2023-05-10T13:08:39;4.93;;;3.90;;
5539;SDS011;2792;52.452;9.752;2023-05-10T13:11:06;6.77;;;5.23;;
5539;SDS011;2792;52.452;9.752;2023-05-10T13:13:33;7.57;;;5.33;;
5539;SDS011;2792;52.452;9.752;2023-05-10T13:16:00;6.27;;;4.77;;
5539;SDS011;2792;52.452;9.752;2023-05-10T13:18:26;7.97;;;5.43;;
5539;SDS011;2792;52.452;9.752;2023-05-10T13:20:53;8.13;;;4.77;;
5539;SDS011;2792;52.452;9.752;2023-05-10T13:23:22;5.37;;;4.70;;
5539;SDS011;2792;52.452;9.752;2023-05-10T13:25:48;6.30;;;4.40;;
5539;SDS011;2792;52.452;9.752;2023-05-10T13:28:14;5.03;;;4.53;;
5539;SDS011;2792;52.452;9.752;2023-05-10T13:30:41;6.03;;;5.40;;
5539;SDS011;2792;52.452;9.752;2023-05-10T13:33:07;10.50;;;6.07;;
5539;SDS011;2792;52.452;9.752;2023-05-10T13:35:34;7.60;;;5.80;;
5539;SDS011;2792;52.452;9.752;2023-05-10T13:38:00;8.60;;;6.03;;
5539;SDS011;2792;52.452;9.752;2023-05-10T13:40:28;8.53;;;5.67;;
5539;SDS011;2792;52.452;9.752;2023-05-10T13:42:55;6.80;;;5.53;;
5539;SDS011;2792;52.452;9.752;2023-05-10T13:45:21;6.53;;;5.03;;
5539;SDS011;2792;52.452;9.752;2023-05-10T13:47:48;13.80;;;6.03;;
5539;SDS011;2792;52.452;9.752;2023-05-10T13:50:14;15.63;;;7.20;;
5539;SDS011;2792;52.452;9.752;2023-05-10T13:52:41;10.20;;;7.47;;
5539;SDS011;2792;52.452;9.752;2023-05-10T13:55:07;10.53;;;7.17;;
5539;SDS011;2792;52.452;9.752;2023-05-10T13:57:36;10.57;;;8.17;;
5539;SDS011;2792;52.452;9.752;2023-05-10T14:00:02;11.40;;;8.27;;
5539;SDS011;2792;52.452;9.752;2023-05-10T14:02:30;12.73;;;8.40;;
5539;SDS011;2792;52.452;9.752;2023-05-10T14:04:56;13.27;;;8.60;;
5539;SDS011;2792;52.452;9.752;2023-05-10T14:07:23;14.27;;;8.57;;
5539;SDS011;2792;52.452;9.752;2023-05-10T14:09:49;13.70;;;8.70;;
5539;SDS011;2792;52.452;9.752;2023-05-10T14:12:16;14.93;;;9.90;;
5539;SDS011;2792;52.452;9.752;2023-05-10T14:14:44;17.50;;;9.27;;
5539;SDS011;2792;52.452;9.752;2023-05-10T14:17:10;15.20;;;10.00;;
5539;SDS011;2792;52.452;9.752;2023-05-10T14:19:37;16.37;;;10.50;;
5539;SDS011;2792;52.452;9.752;2023-05-10T14:22:03;15.37;;;9.87;;
5539;SDS011;2792;52.452;9.752;2023-05-10T14:24:30;18.73;;;11.00;;
5539;SDS011;2792;52.452;9.752;2023-05-10T14:26:57;17.40;;;10.40;;
5539;SDS011;2792;52.452;9.752;2023-05-10T14:29:23;18.40;;;10.70;;
5539;SDS011;2792;52.452;9.752;2023-05-10T14:31:51;17.97;;;11.13;;
5539;SDS011;2792;52.452;9.752;2023-05-10T14:34:18;18.30;;;11.00;;
5539;SDS011;2792;52.452;9.752;2023-05-10T14:36:44;19.73;;;11.70;;
5539;SDS011;2792;52.452;9.752;2023-05-10T14:39:11;19.07;;;11.50;;
5539;SDS011;2792;52.452;9.752;2023-05-10T14:41:38;16.60;;;11.30;;
5539;SDS011;2792;52.452;9.752;2023-05-10T14:44:06;20.17;;;12.23;;
5539;SDS011;2792;52.452;9.752;2023-05-10T14:46:32;18.33;;;12.30;;
5539;SDS011;2792;52.452;9.752;2023-05-10T14:49:00;21.00;;;11.90;;
5539;SDS011;2792;52.452;9.752;2023-05-10T14:51:27;24.03;;;12.93;;
5539;SDS011;2792;52.452;9.752;2023-05-10T14:53:53;23.60;;;13.93;;
5539;SDS011;2792;52.452;9.752;2023-05-10T14:56:20;20.40;;;12.50;;
5539;SDS011;2792;52.452;9.752;2023-05-10T14:58:47;21.40;;;13.27;;
5539;SDS011;2792;52.452;9.752;2023-05-10T15:01:15;20.00;;;12.60;;
5539;SDS011;2792;52.452;9.752;2023-05-10T15:03:42;19.97;;;12.80;;
5539;SDS011;2792;52.452;9.752;2023-05-10T15:06:09;18.80;;;11.67;;
5539;SDS011;2792;52.452;9.752;2023-05-10T15:08:36;19.63;;;12.00;;
5539;SDS011;2792;52.452;9.752;2023-05-10T15:11:03;17.73;;;12.27;;
5539;SDS011;2792;52.452;9.752;2023-05-10T15:13:29;19.70;;;11.40;;
5539;SDS011;2792;52.452;9.752;2023-05-10T15:15:56;14.50;;;10.40;;
5539;SDS011;2792;52.452;9.752;2023-05-10T15:18:22;14.07;;;11.00;;
5539;SDS011;2792;52.452;9.752;2023-05-10T15:20:49;17.00;;;11.07;;